createdAt,value
2023-05-05T00:00:53.726Z,14.88
2023-05-05T00:05:51.746Z,14.96
2023-05-05T00:10:49.732Z,14.80
2023-05-05T00:15:47.240Z,14.81
2023-05-05T00:20:46.636Z,14.85
2023-05-05T00:25:45.953Z,14.73
2023-05-05T00:30:42.777Z,14.88
2023-05-05T00:35:40.115Z,14.97
2023-05-05T00:40:38.703Z,14.92
2023-05-05T00:45:36.902Z,15.03
2023-05-05T00:50:34.860Z,15.06
2023-05-05T00:55:31.847Z,14.97
2023-05-05T01:00:29.800Z,15.30
2023-05-05T01:05:33.165Z,15.18
2023-05-05T01:10:32.650Z,15.23
2023-05-05T01:15:33.371Z,15.24
2023-05-05T01:20:33.055Z,15.31
2023-05-05T01:25:46.729Z,15.05
2023-05-05T01:31:01.531Z,15.15
2023-05-05T01:36:03.211Z,15.08
2023-05-05T01:41:04.062Z,14.88
2023-05-05T01:46:02.529Z,15.13
2023-05-05T01:51:01.303Z,15.01
2023-05-05T01:55:58.370Z,14.95
2023-05-05T02:00:57.064Z,14.88
2023-05-05T02:05:54.319Z,14.70
2023-05-05T02:10:52.782Z,14.82
2023-05-05T02:15:50.273Z,14.83
2023-05-05T02:20:46.928Z,15.00
2023-05-05T02:25:45.908Z,14.80
2023-05-05T02:30:43.788Z,14.87
2023-05-05T02:35:40.936Z,14.81
2023-05-05T02:40:43.215Z,14.78
2023-05-05T02:45:45.208Z,14.67
2023-05-05T02:50:42.998Z,14.46
2023-05-05T02:56:06.359Z,14.62
2023-05-05T03:01:11.576Z,14.43
2023-05-05T03:06:13.203Z,14.30
2023-05-05T03:11:16.093Z,14.15
2023-05-05T03:16:15.325Z,14.07
2023-05-05T03:21:14.756Z,14.13
2023-05-05T03:26:16.448Z,14.15
2023-05-05T03:31:13.286Z,14.40
2023-05-05T03:36:10.663Z,14.38
2023-05-05T03:41:07.816Z,14.26
2023-05-05T03:46:04.829Z,14.45
2023-05-05T03:51:02.064Z,14.26
2023-05-05T03:56:02.307Z,14.26
2023-05-05T04:00:59.296Z,14.04
2023-05-05T04:05:55.974Z,14.12
2023-05-05T04:10:52.893Z,14.28
2023-05-05T04:15:51.037Z,14.29
2023-05-05T04:20:48.525Z,14.37
2023-05-05T04:25:46.648Z,14.41
2023-05-05T04:30:43.293Z,14.34
2023-05-05T04:35:40.955Z,14.48
2023-05-05T04:40:38.828Z,14.26
2023-05-05T04:45:36.276Z,14.24
2023-05-05T04:50:32.928Z,14.09
2023-05-05T04:55:30.489Z,14.17
2023-05-05T05:00:27.764Z,14.15
2023-05-05T05:05:24.470Z,14.29
2023-05-05T05:10:27.169Z,14.28
2023-05-05T05:15:26.037Z,14.52
2023-05-05T05:20:23.661Z,14.65
2023-05-05T05:25:20.839Z,14.67
2023-05-05T05:30:18.796Z,14.65
2023-05-05T05:35:16.482Z,14.49
2023-05-05T05:40:14.047Z,14.46
2023-05-05T05:45:11.432Z,14.44
2023-05-05T05:50:11.191Z,14.45
2023-05-05T05:55:09.527Z,14.58
2023-05-05T06:00:08.488Z,14.82
2023-05-05T06:05:17.327Z,15.05
2023-05-05T06:10:27.602Z,15.06
2023-05-05T06:15:31.134Z,15.05
2023-05-05T06:20:29.702Z,15.01
2023-05-05T06:25:29.415Z,14.95
2023-05-05T06:30:26.171Z,14.93
2023-05-05T06:35:27.770Z,14.80
2023-05-05T06:40:27.624Z,15.03
2023-05-05T06:45:30.184Z,14.93
2023-05-05T06:50:28.748Z,15.03
2023-05-05T06:55:25.648Z,15.03
2023-05-05T07:00:22.911Z,15.05
2023-05-05T07:05:20.475Z,15.24
2023-05-05T07:10:17.775Z,15.35
2023-05-05T07:15:26.765Z,15.34
2023-05-05T07:20:29.910Z,15.33
2023-05-05T07:25:26.767Z,15.22
2023-05-05T07:30:26.781Z,15.50
2023-05-05T07:35:23.952Z,15.55
2023-05-05T07:40:21.406Z,15.70
2023-05-05T07:45:20.640Z,15.77
2023-05-05T07:50:18.090Z,15.84
2023-05-05T07:55:16.221Z,15.76
2023-05-05T08:00:14.631Z,15.81
2023-05-05T08:05:13.276Z,15.87
2023-05-05T08:10:10.730Z,16.24
2023-05-05T08:15:08.395Z,16.35
2023-05-05T08:20:07.654Z,16.56
2023-05-05T08:25:08.380Z,16.29
2023-05-05T08:30:09.072Z,16.35
2023-05-05T08:35:14.599Z,16.28
2023-05-05T08:40:14.957Z,16.27
2023-05-05T08:45:12.156Z,16.33
2023-05-05T08:50:10.913Z,16.52
2023-05-05T08:55:13.321Z,16.47
2023-05-05T09:00:10.986Z,16.41
2023-05-05T09:05:08.365Z,16.47
2023-05-05T09:10:08.067Z,16.77
2023-05-05T09:15:05.488Z,16.77
2023-05-05T09:20:04.303Z,17.05
2023-05-05T09:25:01.099Z,17.18
2023-05-05T09:29:58.801Z,17.05
2023-05-05T09:35:01.523Z,16.92
2023-05-05T09:40:00.433Z,16.79
2023-05-05T09:44:59.603Z,16.73
2023-05-05T09:49:58.421Z,16.88
2023-05-05T09:54:55.955Z,16.67
2023-05-05T10:00:02.731Z,16.79
2023-05-05T10:05:12.733Z,16.88
2023-05-05T10:10:11.246Z,17.06
2023-05-05T10:15:09.166Z,16.94
2023-05-05T10:20:08.020Z,16.96
2023-05-05T10:25:10.373Z,17.19
2023-05-05T10:30:08.613Z,16.93
2023-05-05T10:35:11.579Z,17.24
2023-05-05T10:40:20.601Z,17.23
2023-05-05T10:45:19.906Z,17.36
2023-05-05T10:50:23.631Z,17.61
2023-05-05T10:55:24.559Z,17.51
2023-05-05T11:00:39.897Z,17.66
2023-05-05T11:05:36.958Z,17.65
2023-05-05T11:10:55.170Z,17.85
2023-05-05T11:15:56.346Z,17.90
2023-05-05T11:21:08.539Z,17.96
2023-05-05T11:26:08.678Z,18.06
2023-05-05T11:31:18.770Z,18.14
2023-05-05T11:36:16.179Z,18.25
2023-05-05T11:41:17.312Z,18.16
2023-05-05T11:46:15.673Z,18.29
2023-05-05T11:51:15.894Z,18.34
2023-05-05T11:56:18.493Z,18.53
2023-05-05T12:01:15.698Z,18.64
2023-05-05T12:06:12.879Z,18.83
2023-05-05T12:11:13.115Z,19.00
2023-05-05T12:16:10.059Z,18.77
2023-05-05T12:21:13.785Z,18.65
2023-05-05T12:26:30.200Z,18.82
2023-05-05T12:31:37.111Z,18.84
2023-05-05T12:36:45.382Z,18.80
2023-05-05T12:42:05.351Z,18.83
2023-05-05T12:47:02.297Z,18.83
2023-05-05T12:51:59.684Z,18.79
2023-05-05T12:56:58.074Z,18.87
2023-05-05T13:01:55.835Z,18.84
2023-05-05T13:07:08.601Z,19.06
2023-05-05T13:12:10.835Z,19.28
2023-05-05T13:17:08.327Z,19.23
2023-05-05T13:22:05.305Z,19.57
2023-05-05T13:27:02.881Z,19.39
2023-05-05T13:32:00.403Z,19.56
2023-05-05T13:36:57.265Z,19.68
2023-05-05T13:41:53.877Z,19.87
2023-05-05T13:46:50.636Z,19.82
2023-05-05T13:51:48.196Z,19.93
2023-05-05T13:56:45.056Z,20.06
2023-05-05T14:01:42.038Z,20.28
2023-05-05T14:06:40.501Z,20.23
2023-05-05T14:11:37.848Z,20.30
2023-05-05T14:16:34.811Z,20.31
2023-05-05T14:21:31.971Z,20.42
2023-05-05T14:26:28.629Z,20.36
2023-05-05T14:31:25.981Z,20.37
2023-05-05T14:36:22.977Z,20.37
2023-05-05T14:41:21.734Z,20.35
2023-05-05T14:46:18.721Z,20.48
2023-05-05T14:51:16.297Z,20.51
2023-05-05T14:56:13.060Z,20.36
2023-05-05T15:01:09.817Z,20.39
2023-05-05T15:06:09.456Z,20.50
2023-05-05T15:11:06.832Z,20.44
2023-05-05T15:16:05.917Z,20.47
2023-05-05T15:21:02.551Z,20.52
2023-05-05T15:25:59.099Z,20.28
2023-05-05T15:30:56.696Z,20.22
2023-05-05T15:35:53.413Z,20.12
2023-05-05T15:40:50.369Z,20.12
2023-05-05T15:45:47.064Z,20.18
2023-05-05T15:50:44.391Z,20.14
2023-05-05T15:55:42.229Z,19.85
2023-05-05T16:00:39.149Z,19.67
2023-05-05T16:05:36.072Z,19.49
2023-05-05T16:10:34.462Z,19.32
2023-05-05T16:15:35.925Z,19.24
2023-05-05T16:20:32.791Z,19.19
2023-05-05T16:25:29.505Z,18.91
2023-05-05T16:30:26.757Z,18.96
2023-05-05T16:35:23.415Z,18.82
2023-05-05T16:40:20.054Z,18.77
2023-05-05T16:45:16.676Z,18.70
2023-05-05T16:50:14.038Z,18.65
2023-05-05T16:55:11.118Z,18.64
2023-05-05T17:00:08.940Z,18.50
2023-05-05T17:05:06.020Z,18.52
2023-05-05T17:10:03.582Z,18.45
2023-05-05T17:15:00.431Z,18.38
2023-05-05T17:19:57.253Z,18.39
2023-05-05T17:24:53.909Z,18.32
2023-05-05T17:29:51.202Z,18.27
2023-05-05T17:34:48.021Z,18.25
2023-05-05T17:39:44.606Z,18.48
2023-05-05T17:44:44.070Z,18.73
2023-05-05T17:49:42.228Z,18.87
2023-05-05T17:54:38.854Z,18.95
2023-05-05T17:59:35.636Z,18.94
2023-05-05T18:04:32.281Z,18.84
2023-05-05T18:09:30.492Z,18.75
2023-05-05T18:14:27.222Z,18.58
2023-05-05T18:19:23.892Z,18.43
2023-05-05T18:24:20.844Z,18.41
2023-05-05T18:29:18.363Z,18.41
2023-05-05T18:34:16.221Z,18.33
2023-05-05T18:39:12.904Z,18.29
2023-05-05T18:44:10.116Z,18.27
2023-05-05T18:49:07.750Z,18.03
2023-05-05T18:54:04.383Z,17.82
2023-05-05T18:59:00.988Z,17.68
2023-05-05T19:03:57.623Z,17.63
2023-05-05T19:08:56.068Z,17.62
2023-05-05T19:13:53.740Z,17.66
2023-05-05T19:18:50.350Z,17.81
2023-05-05T19:23:46.816Z,17.73
2023-05-05T19:28:44.204Z,17.52
2023-05-05T19:33:44.515Z,17.27
2023-05-05T19:38:43.871Z,17.17
2023-05-05T19:43:40.522Z,16.99
2023-05-05T19:48:37.757Z,16.96
2023-05-05T19:53:34.398Z,17.08
2023-05-05T19:58:33.601Z,17.09
2023-05-05T20:03:30.604Z,16.97
2023-05-05T20:08:27.886Z,17.25
2023-05-05T20:13:24.651Z,17.12
2023-05-05T20:18:21.314Z,17.04
2023-05-05T20:23:17.832Z,16.89
2023-05-05T20:28:15.173Z,17.01
2023-05-05T20:33:12.131Z,16.72
2023-05-05T20:38:09.114Z,16.82
2023-05-05T20:43:05.757Z,16.83
2023-05-05T20:48:03.509Z,16.77
2023-05-05T20:53:00.094Z,16.64
2023-05-05T20:57:56.749Z,16.63
2023-05-05T21:02:53.426Z,16.33
2023-05-05T21:07:53.312Z,16.35
2023-05-05T21:12:50.115Z,16.43
2023-05-05T21:17:47.175Z,16.50
2023-05-05T21:22:43.933Z,16.41
2023-05-05T21:27:41.659Z,16.09
2023-05-05T21:32:38.260Z,16.38
2023-05-05T21:37:36.468Z,16.71
2023-05-05T21:42:34.478Z,16.61
2023-05-05T21:47:31.855Z,16.58
2023-05-05T21:52:28.631Z,16.58
2023-05-05T21:57:25.233Z,16.38
2023-05-05T22:02:21.967Z,16.59
2023-05-05T22:07:19.381Z,16.60
2023-05-05T22:12:17.910Z,16.35
2023-05-05T22:17:14.585Z,16.36
2023-05-05T22:22:11.437Z,16.42
2023-05-05T22:27:10.996Z,16.62
2023-05-05T22:32:07.544Z,16.58
2023-05-05T22:37:06.851Z,16.44
2023-05-05T22:42:03.494Z,16.67
2023-05-05T22:47:03.121Z,16.78
2023-05-05T22:51:59.752Z,16.71
2023-05-05T22:56:56.404Z,16.81
2023-05-05T23:01:52.890Z,16.99
2023-05-05T23:06:50.144Z,17.00
2023-05-05T23:11:46.752Z,17.12
2023-05-05T23:16:43.401Z,16.77
2023-05-05T23:21:52.083Z,17.01
2023-05-05T23:26:51.456Z,16.88
2023-05-05T23:31:48.071Z,16.94
2023-05-05T23:36:44.896Z,16.81
2023-05-05T23:41:41.416Z,16.54
2023-05-05T23:46:38.675Z,16.30
2023-05-05T23:51:35.272Z,16.23
2023-05-05T23:56:31.881Z,16.36
